ESSD/BLE METAR and TAF weather

Enter ICAO airport designator
Station Type Date Time Source
ESSD METAR 2022/01/18 07:50 UTC NOAA

ESSD 180750Z VRB02KT CAVOK M01/M07 Q1021


Station Type Date Time Source
ESSD Decoded METAR 2022/01/18 07:50 UTC NOAA

Borlange, Sweden (ESSD) 60-26N 015-31E 0M
Jan 18, 2022 - 02:50 AM EST / 2022.01.18 0750 UTC
Wind: Variable at 2 MPH (2 KT):0
Visibility: greater than 7 mile(s):0
Temperature: 30 F (-1 C)
Dew Point: 19 F (-7 C)
Relative Humidity: 63%
Pressure (altimeter): 30.15 in. Hg (1021 hPa)
ob: ESSD 180750Z VRB02KT CAVOK M01/M07 Q1021
cycle: 8

Station Type Date Time Source
ESSD TAF 2018/05/02 04:48 UTC NOAA

TAF TAF ESSD 020320Z 0204/0412 27008KT 9999 BKN019 PROB40 0204/0209 BKN006

Example: see airport list